ENBL

Bringeland Airport

Førde, Norway
METAR ENBL 171850Z 20009KT 170V240 9999 -SHRA FEW005 SCT022 BKN025 06/05 Q1015
Observed Flight Rules
Oct-17 @ 18:50 UTC (19 minutes ago) Marginal Visual Flight Rules
Wind Visibility Clouds Conditions
200° at 9 knots 10,000+ meters
  • Few at 500' AGL
  • Scattered at 2,200' AGL
  • Broken at 2,500' AGL
  • Light Rain
Temperatures Readings
Current 6°C / 43°F
Dewpoint 5°C / 41°F
Humidity 93%
Altimeter 29.97" Hg
Pressure 1015 hPa
Elevation 150
METAR ENBL 171850Z 20009KT 170V240 9999 -SHRA FEW005 SCT022 BKN025 06/05 Q1015
Observed Flight Rules
Oct-17 @ 18:50 UTC
(19 minutes ago)
MVFR
Wind Visibility
200° at 9 knots 10,000+ meters
Clouds
  • Few at 500' AGL
  • Scattered at 2,200' AGL
  • Broken at 2,500' AGL
Conditions
  • Light Rain
Temperature Dewpoint
6°C / 43°F 5°C / 41°F
Humidity Altimeter Pressure
93% 29.97" Hg 1015 hPa